TNCMTFFR

Guest
Details From TNCM - St Maarten - Princess Juliana Intl
To TFFR - Pointe a Pitre Le Raizet
Flight Number -
Tags generated
Created
Modified
Stats Distance 140 nm / 260 km
Max Altitude 7,000 ft / 2,134 m
Waypoints 4
Social Downloads 56
Likes 0
Share VATSIM

Download

Looking for another format? Having issues loading an existing format? Contact us
Advertisement - Login to hide

Notes

Basic altitude profile: - Ascent Rate: 2500ft/min - Ascent Speed: 250kts - Cruise Altitude: 35000ft - Cruise Speed: 420kts - Descent Rate: 1500ft/min - Descent Speed: 250kts Options: - Use NATs: yes - Use PACOTS: yes - Use low airways: yes - Use high airways: yes

Route

TNCM BIMBO A517 PPR TFFR

ID Type Via Altitude (ft/m) Position (lat/lon) Dist (leg/tot) Name
O TNCM APT - 0 / 0 18.04089 / -63.10897 - / 0 nm St Maarten - Princess Juliana Intl
BIMBO FIX - 7,000 / 2,134 16.62667 / -61.96028 107 / 107 nm
PPR DME A517 (AWY-LO) 7,000 / 2,134 16.26519 / -61.54014 32 / 139 nm POINTE A PITRE VOR-DME
O TFFR APT - 0 / 0 16.26531 / -61.53181 0 / 140 nm Pointe a Pitre Le Raizet

Altitude Profile

Advertisement - Login to hide

TNCM

Details ICAO TNCM (SXM)
Name Princess Juliana Intl
Region Caribbean Netherlands, Aruba, Curaçao, Sint Maarten
Timezone Unknown
Stats Elevation 14 ft / 4 m (AMSL)
Location 18.040900° -63.108900°
Runways 1
Magnetic Variation 14.388° W

METAR

TNCM 080200Z 05007KT 9999 SCT018 27/23 Q1017

Decode

TAF

TAF TNCM 072339Z 0800/0824 04007KT P6SM VCSH SCT018 SCT035 FM080500 06005KT P6SM -SHRA VCSH SCT018 BKN040 FM081430 09012KT P6SM SCT022 BKN050

Decode

Departure Runways

ID Width Length Bearing (true/mag) Surface Threshold Overrun Markings Lighting
10 148 ft / 45 m 7,553 ft / 2,302 m 81.44° / 95.83° ASPHALT 331 ft / 101 m 164 ft / 50 m PREC-APP EDGE THRESHOLD REIL-OMNI
28 148 ft / 45 m 7,553 ft / 2,302 m 261.45° / 275.83° ASPHALT 0 ft / 0 m 200 ft / 61 m APP EDGE THRESHOLD

TFFR

Details ICAO TFFR (PTP)
Name Pointe-A-Pitre Intl
Region France (Guadeloupe, Martinique, Saint Barthélemy, Saint Martin)
Timezone America/Guadeloupe (UTC-4.0)
Stats Elevation 35 ft / 11 m (AMSL)
Location 16.265500° -61.533000°
Runways 1
Magnetic Variation 14.916° W

METAR

TFFR 080200Z AUTO 13003KT CAVOK 25/22 Q1016 NOSIG

Decode

TAF

TAF TFFR 080200Z 0802/0824 CNL

Decode

Destination Runways

ID Width Length Bearing (true/mag) Surface Threshold Overrun Markings Lighting
12 148 ft / 45 m 10,673 ft / 3,253 m 100.87° / 115.78° ASPHALT 1,309 ft / 399 m 98 ft / 30 m PREC-APP CENTERLINE EDGE THRESHOLD TDZ REIL-OMNI
30 148 ft / 45 m 10,673 ft / 3,253 m 280.87° / 295.79° ASPHALT 978 ft / 298 m 853 ft / 260 m APP CENTERLINE EDGE THRESHOLD TDZ REIL-OMNI

Approach Navaids

Runway Type Ident Frequency Range Bearing (true/mag) Slope Elevation
12 GS PP 110.30 MHz 18 nm / 33 km 100.95° / 115.87 ° 3.20° 35 ft / 11 m (AMSL)
12 LOC-ILS PP 110.30 MHz 18 nm / 33 km 100.95° / 115.87 ° - 35 ft / 11 m (AMSL)

Popular Alternatives